sensor_id;sensor_type;location;lat;lon;timestamp;temperature;humidity
52615;DHT22;38508;53.158;6.614;2023-04-30T00:01:43;9.00;99.90
52615;DHT22;38508;53.158;6.614;2023-04-30T00:04:08;9.10;99.90
52615;DHT22;38508;53.158;6.614;2023-04-30T00:06:34;8.90;99.90
52615;DHT22;38508;53.158;6.614;2023-04-30T00:08:59;8.90;99.90
52615;DHT22;38508;53.158;6.614;2023-04-30T00:11:25;9.00;99.90
52615;DHT22;38508;53.158;6.614;2023-04-30T00:13:51;8.90;99.90
52615;DHT22;38508;53.158;6.614;2023-04-30T00:16:17;8.80;99.90
52615;DHT22;38508;53.158;6.614;2023-04-30T00:18:43;8.90;99.90
52615;DHT22;38508;53.158;6.614;2023-04-30T00:21:09;8.90;99.90
52615;DHT22;38508;53.158;6.614;2023-04-30T00:23:34;8.80;99.90
52615;DHT22;38508;53.158;6.614;2023-04-30T00:26:00;8.80;99.90
52615;DHT22;38508;53.158;6.614;2023-04-30T00:28:26;8.80;99.90
52615;DHT22;38508;53.158;6.614;2023-04-30T00:30:52;8.80;99.90
52615;DHT22;38508;53.158;6.614;2023-04-30T00:33:18;8.90;99.90
52615;DHT22;38508;53.158;6.614;2023-04-30T00:35:43;8.90;99.90
52615;DHT22;38508;53.158;6.614;2023-04-30T00:38:09;8.80;99.90
52615;DHT22;38508;53.158;6.614;2023-04-30T00:40:36;8.80;99.90
52615;DHT22;38508;53.158;6.614;2023-04-30T00:43:02;8.70;99.90
52615;DHT22;38508;53.158;6.614;2023-04-30T00:45:28;8.60;99.90
52615;DHT22;38508;53.158;6.614;2023-04-30T00:47:54;8.60;99.90
52615;DHT22;38508;53.158;6.614;2023-04-30T00:50:19;8.60;99.90
52615;DHT22;38508;53.158;6.614;2023-04-30T00:52:45;8.70;99.90
52615;DHT22;38508;53.158;6.614;2023-04-30T00:55:11;8.70;99.90
52615;DHT22;38508;53.158;6.614;2023-04-30T00:57:38;8.50;99.90
52615;DHT22;38508;53.158;6.614;2023-04-30T01:00:05;8.50;99.90
52615;DHT22;38508;53.158;6.614;2023-04-30T01:02:34;8.40;99.90
52615;DHT22;38508;53.158;6.614;2023-04-30T01:05:02;8.40;99.90
52615;DHT22;38508;53.158;6.614;2023-04-30T01:07:29;8.30;99.90
52615;DHT22;38508;53.158;6.614;2023-04-30T01:09:55;8.30;99.90
52615;DHT22;38508;53.158;6.614;2023-04-30T01:12:28;8.30;99.90
52615;DHT22;38508;53.158;6.614;2023-04-30T01:15:22;8.30;99.90
52615;DHT22;38508;53.158;6.614;2023-04-30T01:18:27;8.30;99.90
52615;DHT22;38508;53.158;6.614;2023-04-30T01:21:03;8.20;99.90
52615;DHT22;38508;53.158;6.614;2023-04-30T01:26:44;8.10;99.90
52615;DHT22;38508;53.158;6.614;2023-04-30T01:29:15;8.20;99.90
52615;DHT22;38508;53.158;6.614;2023-04-30T01:31:43;8.30;99.90
52615;DHT22;38508;53.158;6.614;2023-04-30T01:34:09;8.30;99.90
52615;DHT22;38508;53.158;6.614;2023-04-30T01:42:19;8.20;99.90
52615;DHT22;38508;53.158;6.614;2023-04-30T01:50:41;8.30;99.90
52615;DHT22;38508;53.158;6.614;2023-04-30T01:53:18;8.30;99.90
52615;DHT22;38508;53.158;6.614;2023-04-30T01:55:57;8.20;99.90
52615;DHT22;38508;53.158;6.614;2023-04-30T01:58:24;8.20;99.90
52615;DHT22;38508;53.158;6.614;2023-04-30T02:00:51;8.10;99.90
52615;DHT22;38508;53.158;6.614;2023-04-30T02:03:18;8.10;99.90
52615;DHT22;38508;53.158;6.614;2023-04-30T02:05:43;8.10;99.90
52615;DHT22;38508;53.158;6.614;2023-04-30T02:08:09;8.20;99.90
52615;DHT22;38508;53.158;6.614;2023-04-30T02:10:35;8.20;99.90
52615;DHT22;38508;53.158;6.614;2023-04-30T02:13:00;8.20;99.90
52615;DHT22;38508;53.158;6.614;2023-04-30T02:15:26;8.10;99.90
52615;DHT22;38508;53.158;6.614;2023-04-30T02:17:52;8.20;99.90
52615;DHT22;38508;53.158;6.614;2023-04-30T02:20:17;8.20;99.90
52615;DHT22;38508;53.158;6.614;2023-04-30T02:22:43;8.20;99.90
52615;DHT22;38508;53.158;6.614;2023-04-30T02:25:09;8.20;99.90
52615;DHT22;38508;53.158;6.614;2023-04-30T02:27:37;8.30;99.90
52615;DHT22;38508;53.158;6.614;2023-04-30T02:30:03;8.40;99.90
52615;DHT22;38508;53.158;6.614;2023-04-30T02:32:29;8.50;99.90
52615;DHT22;38508;53.158;6.614;2023-04-30T02:34:55;8.50;99.90
52615;DHT22;38508;53.158;6.614;2023-04-30T02:37:21;8.50;99.90
52615;DHT22;38508;53.158;6.614;2023-04-30T02:39:47;8.60;99.90
52615;DHT22;38508;53.158;6.614;2023-04-30T02:42:13;8.50;99.90
52615;DHT22;38508;53.158;6.614;2023-04-30T02:44:39;8.50;99.90
52615;DHT22;38508;53.158;6.614;2023-04-30T02:47:04;8.50;99.90
52615;DHT22;38508;53.158;6.614;2023-04-30T02:49:30;8.50;99.90
52615;DHT22;38508;53.158;6.614;2023-04-30T02:51:56;8.50;99.90
52615;DHT22;38508;53.158;6.614;2023-04-30T02:54:21;8.50;99.90
52615;DHT22;38508;53.158;6.614;2023-04-30T02:56:47;8.40;99.90
52615;DHT22;38508;53.158;6.614;2023-04-30T02:59:13;8.40;99.90
52615;DHT22;38508;53.158;6.614;2023-04-30T03:01:39;8.50;99.90
52615;DHT22;38508;53.158;6.614;2023-04-30T03:04:05;8.50;99.90
52615;DHT22;38508;53.158;6.614;2023-04-30T03:06:31;8.60;99.90
52615;DHT22;38508;53.158;6.614;2023-04-30T03:08:57;8.60;99.90
52615;DHT22;38508;53.158;6.614;2023-04-30T03:11:23;8.50;99.90
52615;DHT22;38508;53.158;6.614;2023-04-30T03:13:49;8.50;99.90
52615;DHT22;38508;53.158;6.614;2023-04-30T03:16:19;8.50;99.90
52615;DHT22;38508;53.158;6.614;2023-04-30T03:18:45;8.60;99.90
52615;DHT22;38508;53.158;6.614;2023-04-30T03:21:11;8.60;99.90
52615;DHT22;38508;53.158;6.614;2023-04-30T03:23:37;8.50;99.90
52615;DHT22;38508;53.158;6.614;2023-04-30T03:26:02;8.40;99.90
52615;DHT22;38508;53.158;6.614;2023-04-30T03:28:28;8.40;99.90
52615;DHT22;38508;53.158;6.614;2023-04-30T03:30:54;8.30;99.90
52615;DHT22;38508;53.158;6.614;2023-04-30T03:33:19;8.40;99.90
52615;DHT22;38508;53.158;6.614;2023-04-30T03:35:45;8.30;99.90
52615;DHT22;38508;53.158;6.614;2023-04-30T03:38:11;8.30;99.90
52615;DHT22;38508;53.158;6.614;2023-04-30T03:40:37;8.40;99.90
52615;DHT22;38508;53.158;6.614;2023-04-30T03:43:02;8.40;99.90
52615;DHT22;38508;53.158;6.614;2023-04-30T03:45:28;8.40;99.90
52615;DHT22;38508;53.158;6.614;2023-04-30T03:47:54;8.40;99.90
52615;DHT22;38508;53.158;6.614;2023-04-30T03:50:19;8.40;99.90
52615;DHT22;38508;53.158;6.614;2023-04-30T03:52:45;8.40;99.90
52615;DHT22;38508;53.158;6.614;2023-04-30T03:55:11;8.40;99.90
52615;DHT22;38508;53.158;6.614;2023-04-30T03:57:38;8.40;99.90
52615;DHT22;38508;53.158;6.614;2023-04-30T04:00:05;8.50;99.90
52615;DHT22;38508;53.158;6.614;2023-04-30T04:02:35;8.40;99.90
52615;DHT22;38508;53.158;6.614;2023-04-30T04:05:02;8.40;99.90
52615;DHT22;38508;53.158;6.614;2023-04-30T04:07:27;8.30;99.90
52615;DHT22;38508;53.158;6.614;2023-04-30T04:09:53;8.40;99.90
52615;DHT22;38508;53.158;6.614;2023-04-30T04:12:19;8.30;99.90
52615;DHT22;38508;53.158;6.614;2023-04-30T04:14:44;8.30;99.90
52615;DHT22;38508;53.158;6.614;2023-04-30T04:17:10;8.20;99.90
52615;DHT22;38508;53.158;6.614;2023-04-30T04:19:36;8.30;99.90
52615;DHT22;38508;53.158;6.614;2023-04-30T04:22:02;8.30;99.90
52615;DHT22;38508;53.158;6.614;2023-04-30T04:24:28;8.40;99.90
52615;DHT22;38508;53.158;6.614;2023-04-30T04:26:54;8.30;99.90
52615;DHT22;38508;53.158;6.614;2023-04-30T04:29:20;8.30;99.90
52615;DHT22;38508;53.158;6.614;2023-04-30T04:31:46;8.30;99.90
52615;DHT22;38508;53.158;6.614;2023-04-30T04:34:13;8.30;99.90
52615;DHT22;38508;53.158;6.614;2023-04-30T04:36:39;8.20;99.90
52615;DHT22;38508;53.158;6.614;2023-04-30T04:39:05;8.30;99.90
52615;DHT22;38508;53.158;6.614;2023-04-30T04:41:32;8.30;99.90
52615;DHT22;38508;53.158;6.614;2023-04-30T04:43:58;8.30;99.90
52615;DHT22;38508;53.158;6.614;2023-04-30T04:46:24;8.20;99.90
52615;DHT22;38508;53.158;6.614;2023-04-30T04:48:51;8.30;99.90
52615;DHT22;38508;53.158;6.614;2023-04-30T04:51:16;8.40;99.90
52615;DHT22;38508;53.158;6.614;2023-04-30T04:53:42;8.40;99.90
52615;DHT22;38508;53.158;6.614;2023-04-30T04:56:08;8.40;99.90
52615;DHT22;38508;53.158;6.614;2023-04-30T04:58:33;8.40;99.90
52615;DHT22;38508;53.158;6.614;2023-04-30T05:00:59;8.30;99.90
52615;DHT22;38508;53.158;6.614;2023-04-30T05:03:26;8.30;99.90
52615;DHT22;38508;53.158;6.614;2023-04-30T05:05:52;8.40;99.90
52615;DHT22;38508;53.158;6.614;2023-04-30T05:08:18;8.40;99.90
52615;DHT22;38508;53.158;6.614;2023-04-30T05:10:44;8.50;99.90
52615;DHT22;38508;53.158;6.614;2023-04-30T05:13:10;8.50;99.90
52615;DHT22;38508;53.158;6.614;2023-04-30T05:15:36;8.60;99.90
52615;DHT22;38508;53.158;6.614;2023-04-30T05:18:02;8.70;99.90
52615;DHT22;38508;53.158;6.614;2023-04-30T05:20:28;8.70;99.90
52615;DHT22;38508;53.158;6.614;2023-04-30T05:22:53;8.80;99.90
52615;DHT22;38508;53.158;6.614;2023-04-30T05:25:19;8.90;99.90
52615;DHT22;38508;53.158;6.614;2023-04-30T05:27:45;9.20;99.90
52615;DHT22;38508;53.158;6.614;2023-04-30T05:30:11;9.40;99.90
52615;DHT22;38508;53.158;6.614;2023-04-30T05:32:37;9.50;99.90
52615;DHT22;38508;53.158;6.614;2023-04-30T05:35:02;9.60;99.90
52615;DHT22;38508;53.158;6.614;2023-04-30T05:37:28;9.70;99.90
52615;DHT22;38508;53.158;6.614;2023-04-30T05:39:54;9.80;99.90
52615;DHT22;38508;53.158;6.614;2023-04-30T05:42:20;9.80;99.90
52615;DHT22;38508;53.158;6.614;2023-04-30T05:44:47;9.80;99.90
52615;DHT22;38508;53.158;6.614;2023-04-30T05:47:12;9.90;99.90
52615;DHT22;38508;53.158;6.614;2023-04-30T05:49:38;10.00;99.90
52615;DHT22;38508;53.158;6.614;2023-04-30T05:52:04;10.10;99.90
52615;DHT22;38508;53.158;6.614;2023-04-30T05:54:30;10.10;99.90
52615;DHT22;38508;53.158;6.614;2023-04-30T05:56:56;10.20;99.90
52615;DHT22;38508;53.158;6.614;2023-04-30T05:59:21;10.40;99.90
52615;DHT22;38508;53.158;6.614;2023-04-30T06:01:47;10.40;99.90
52615;DHT22;38508;53.158;6.614;2023-04-30T06:04:13;10.20;99.90
52615;DHT22;38508;53.158;6.614;2023-04-30T06:06:38;10.00;99.90
52615;DHT22;38508;53.158;6.614;2023-04-30T06:09:04;10.10;99.90
52615;DHT22;38508;53.158;6.614;2023-04-30T06:11:30;10.10;99.90
52615;DHT22;38508;53.158;6.614;2023-04-30T06:13:56;10.20;99.90
52615;DHT22;38508;53.158;6.614;2023-04-30T06:16:22;10.40;99.90
52615;DHT22;38508;53.158;6.614;2023-04-30T06:18:48;10.50;99.90
52615;DHT22;38508;53.158;6.614;2023-04-30T06:21:13;10.60;99.90
52615;DHT22;38508;53.158;6.614;2023-04-30T06:23:39;10.70;99.90
52615;DHT22;38508;53.158;6.614;2023-04-30T06:26:05;10.90;99.90
52615;DHT22;38508;53.158;6.614;2023-04-30T06:28:31;10.90;99.90
52615;DHT22;38508;53.158;6.614;2023-04-30T06:30:57;11.00;99.90
52615;DHT22;38508;53.158;6.614;2023-04-30T06:33:22;11.30;99.90
52615;DHT22;38508;53.158;6.614;2023-04-30T06:35:48;11.30;99.90
52615;DHT22;38508;53.158;6.614;2023-04-30T06:38:19;11.20;99.90
52615;DHT22;38508;53.158;6.614;2023-04-30T06:40:45;11.10;99.90
52615;DHT22;38508;53.158;6.614;2023-04-30T06:43:11;11.20;99.90
52615;DHT22;38508;53.158;6.614;2023-04-30T06:45:38;11.20;99.90
52615;DHT22;38508;53.158;6.614;2023-04-30T06:48:04;11.10;99.90
52615;DHT22;38508;53.158;6.614;2023-04-30T06:50:30;11.10;99.90
52615;DHT22;38508;53.158;6.614;2023-04-30T06:52:55;11.10;99.90
52615;DHT22;38508;53.158;6.614;2023-04-30T06:55:21;11.10;99.90
52615;DHT22;38508;53.158;6.614;2023-04-30T06:57:47;11.10;99.90
52615;DHT22;38508;53.158;6.614;2023-04-30T07:00:12;11.20;99.90
52615;DHT22;38508;53.158;6.614;2023-04-30T07:02:41;11.20;99.90
52615;DHT22;38508;53.158;6.614;2023-04-30T07:05:08;11.20;99.90
52615;DHT22;38508;53.158;6.614;2023-04-30T07:07:34;11.20;99.90
52615;DHT22;38508;53.158;6.614;2023-04-30T07:09:59;11.20;99.90
52615;DHT22;38508;53.158;6.614;2023-04-30T07:12:25;11.20;99.90
52615;DHT22;38508;53.158;6.614;2023-04-30T07:14:51;11.10;99.90
52615;DHT22;38508;53.158;6.614;2023-04-30T07:17:17;11.30;99.90
52615;DHT22;38508;53.158;6.614;2023-04-30T07:19:42;11.30;99.90
52615;DHT22;38508;53.158;6.614;2023-04-30T07:22:08;11.40;99.90
52615;DHT22;38508;53.158;6.614;2023-04-30T07:24:34;11.60;99.90
52615;DHT22;38508;53.158;6.614;2023-04-30T07:27:00;11.70;99.90
52615;DHT22;38508;53.158;6.614;2023-04-30T07:29:28;11.80;99.90
52615;DHT22;38508;53.158;6.614;2023-04-30T07:31:54;11.80;99.90
52615;DHT22;38508;53.158;6.614;2023-04-30T07:34:21;11.80;99.90
52615;DHT22;38508;53.158;6.614;2023-04-30T07:36:47;11.90;99.90
52615;DHT22;38508;53.158;6.614;2023-04-30T07:39:13;11.90;99.90
52615;DHT22;38508;53.158;6.614;2023-04-30T07:41:39;12.00;99.90
52615;DHT22;38508;53.158;6.614;2023-04-30T07:44:04;12.10;99.90
52615;DHT22;38508;53.158;6.614;2023-04-30T07:46:30;11.90;99.90
52615;DHT22;38508;53.158;6.614;2023-04-30T07:48:56;12.00;99.90
52615;DHT22;38508;53.158;6.614;2023-04-30T07:51:22;12.10;99.90
52615;DHT22;38508;53.158;6.614;2023-04-30T07:53:47;11.90;99.90
52615;DHT22;38508;53.158;6.614;2023-04-30T07:56:13;11.80;99.90
52615;DHT22;38508;53.158;6.614;2023-04-30T07:58:39;11.90;99.90
52615;DHT22;38508;53.158;6.614;2023-04-30T08:01:04;12.00;99.90
52615;DHT22;38508;53.158;6.614;2023-04-30T08:03:30;12.10;99.90
52615;DHT22;38508;53.158;6.614;2023-04-30T08:05:56;12.10;99.90
52615;DHT22;38508;53.158;6.614;2023-04-30T08:08:22;12.00;99.90
52615;DHT22;38508;53.158;6.614;2023-04-30T08:10:47;12.00;99.90
52615;DHT22;38508;53.158;6.614;2023-04-30T08:13:13;12.10;99.90
52615;DHT22;38508;53.158;6.614;2023-04-30T08:15:38;12.10;99.90
52615;DHT22;38508;53.158;6.614;2023-04-30T08:18:04;12.30;99.90
52615;DHT22;38508;53.158;6.614;2023-04-30T08:20:31;12.60;99.90
52615;DHT22;38508;53.158;6.614;2023-04-30T08:22:57;12.70;99.90
52615;DHT22;38508;53.158;6.614;2023-04-30T08:25:23;12.70;99.90
52615;DHT22;38508;53.158;6.614;2023-04-30T08:27:49;12.50;99.90
52615;DHT22;38508;53.158;6.614;2023-04-30T08:30:14;12.70;99.90
52615;DHT22;38508;53.158;6.614;2023-04-30T08:32:40;12.60;99.90
52615;DHT22;38508;53.158;6.614;2023-04-30T08:35:06;12.80;99.90
52615;DHT22;38508;53.158;6.614;2023-04-30T08:37:33;13.10;99.90
52615;DHT22;38508;53.158;6.614;2023-04-30T08:39:59;13.40;99.90
52615;DHT22;38508;53.158;6.614;2023-04-30T08:42:31;13.40;99.90
52615;DHT22;38508;53.158;6.614;2023-04-30T08:44:59;13.20;99.90
52615;DHT22;38508;53.158;6.614;2023-04-30T08:47:26;13.00;99.90
52615;DHT22;38508;53.158;6.614;2023-04-30T08:49:52;13.00;99.90
52615;DHT22;38508;53.158;6.614;2023-04-30T08:52:18;13.40;99.90
52615;DHT22;38508;53.158;6.614;2023-04-30T08:54:45;13.30;99.90
52615;DHT22;38508;53.158;6.614;2023-04-30T08:57:12;13.10;99.90
52615;DHT22;38508;53.158;6.614;2023-04-30T08:59:37;13.20;99.90
52615;DHT22;38508;53.158;6.614;2023-04-30T09:02:04;13.20;99.90
52615;DHT22;38508;53.158;6.614;2023-04-30T09:04:30;13.30;99.90
52615;DHT22;38508;53.158;6.614;2023-04-30T09:06:56;13.50;99.90
52615;DHT22;38508;53.158;6.614;2023-04-30T09:09:28;13.40;99.90
52615;DHT22;38508;53.158;6.614;2023-04-30T09:12:11;13.20;99.90
52615;DHT22;38508;53.158;6.614;2023-04-30T09:14:38;13.50;99.90
52615;DHT22;38508;53.158;6.614;2023-04-30T09:17:05;13.50;99.90
52615;DHT22;38508;53.158;6.614;2023-04-30T09:19:31;13.50;99.90
52615;DHT22;38508;53.158;6.614;2023-04-30T09:21:57;13.60;99.90
52615;DHT22;38508;53.158;6.614;2023-04-30T09:24:23;13.80;99.90
52615;DHT22;38508;53.158;6.614;2023-04-30T09:26:49;14.00;99.90
52615;DHT22;38508;53.158;6.614;2023-04-30T09:29:16;13.80;99.90
52615;DHT22;38508;53.158;6.614;2023-04-30T09:31:46;13.60;99.90
52615;DHT22;38508;53.158;6.614;2023-04-30T09:34:12;13.80;99.90
52615;DHT22;38508;53.158;6.614;2023-04-30T09:36:51;14.00;99.90
52615;DHT22;38508;53.158;6.614;2023-04-30T09:39:19;14.20;99.90
52615;DHT22;38508;53.158;6.614;2023-04-30T09:41:45;14.30;99.90
52615;DHT22;38508;53.158;6.614;2023-04-30T09:44:31;14.10;99.90
52615;DHT22;38508;53.158;6.614;2023-04-30T09:46:57;14.30;99.90
52615;DHT22;38508;53.158;6.614;2023-04-30T09:49:23;14.40;99.90
52615;DHT22;38508;53.158;6.614;2023-04-30T09:54:26;14.60;99.90
52615;DHT22;38508;53.158;6.614;2023-04-30T09:56:56;14.90;99.90
52615;DHT22;38508;53.158;6.614;2023-04-30T09:59:27;15.10;99.90
52615;DHT22;38508;53.158;6.614;2023-04-30T10:01:59;15.10;99.90
52615;DHT22;38508;53.158;6.614;2023-04-30T10:04:29;15.40;99.90
52615;DHT22;38508;53.158;6.614;2023-04-30T10:06:57;15.60;99.90
52615;DHT22;38508;53.158;6.614;2023-04-30T10:09:38;15.50;99.90
52615;DHT22;38508;53.158;6.614;2023-04-30T10:12:14;15.50;99.90
52615;DHT22;38508;53.158;6.614;2023-04-30T10:14:50;15.60;99.90
52615;DHT22;38508;53.158;6.614;2023-04-30T10:17:17;15.60;99.90
52615;DHT22;38508;53.158;6.614;2023-04-30T10:19:47;15.60;99.90
52615;DHT22;38508;53.158;6.614;2023-04-30T10:22:13;15.70;99.90
52615;DHT22;38508;53.158;6.614;2023-04-30T10:24:41;15.90;99.90
52615;DHT22;38508;53.158;6.614;2023-04-30T10:27:06;15.80;99.90
52615;DHT22;38508;53.158;6.614;2023-04-30T10:29:32;15.90;99.90
52615;DHT22;38508;53.158;6.614;2023-04-30T10:31:58;16.10;99.90
52615;DHT22;38508;53.158;6.614;2023-04-30T10:37:06;15.70;99.90
52615;DHT22;38508;53.158;6.614;2023-04-30T10:39:32;15.90;99.90
52615;DHT22;38508;53.158;6.614;2023-04-30T10:42:01;16.10;99.90
52615;DHT22;38508;53.158;6.614;2023-04-30T10:44:39;15.80;99.90
52615;DHT22;38508;53.158;6.614;2023-04-30T10:47:06;15.80;99.90
52615;DHT22;38508;53.158;6.614;2023-04-30T10:49:32;16.20;99.90
52615;DHT22;38508;53.158;6.614;2023-04-30T10:52:04;16.80;99.90
52615;DHT22;38508;53.158;6.614;2023-04-30T10:54:32;17.20;99.90
52615;DHT22;38508;53.158;6.614;2023-04-30T10:57:09;17.30;99.90
52615;DHT22;38508;53.158;6.614;2023-04-30T10:59:41;17.40;99.90
52615;DHT22;38508;53.158;6.614;2023-04-30T11:02:10;17.60;99.90
52615;DHT22;38508;53.158;6.614;2023-04-30T11:05:07;17.70;99.90
52615;DHT22;38508;53.158;6.614;2023-04-30T11:07:33;17.40;99.90
52615;DHT22;38508;53.158;6.614;2023-04-30T11:10:00;17.40;99.90
52615;DHT22;38508;53.158;6.614;2023-04-30T11:12:27;17.50;99.90
52615;DHT22;38508;53.158;6.614;2023-04-30T11:15:13;17.70;99.90
52615;DHT22;38508;53.158;6.614;2023-04-30T11:17:42;17.80;99.90
52615;DHT22;38508;53.158;6.614;2023-04-30T11:20:11;18.00;99.90
52615;DHT22;38508;53.158;6.614;2023-04-30T11:22:37;18.10;99.90
52615;DHT22;38508;53.158;6.614;2023-04-30T11:25:10;18.00;99.90
52615;DHT22;38508;53.158;6.614;2023-04-30T11:27:41;17.90;99.90
52615;DHT22;38508;53.158;6.614;2023-04-30T11:30:14;17.70;99.90
52615;DHT22;38508;53.158;6.614;2023-04-30T11:32:42;17.70;99.90
52615;DHT22;38508;53.158;6.614;2023-04-30T11:35:09;18.20;99.90
52615;DHT22;38508;53.158;6.614;2023-04-30T11:37:39;18.70;99.90
52615;DHT22;38508;53.158;6.614;2023-04-30T11:40:08;18.90;99.90
52615;DHT22;38508;53.158;6.614;2023-04-30T11:42:38;19.10;99.90
52615;DHT22;38508;53.158;6.614;2023-04-30T11:45:08;19.00;99.90
52615;DHT22;38508;53.158;6.614;2023-04-30T11:47:57;19.10;99.90
52615;DHT22;38508;53.158;6.614;2023-04-30T11:50:25;19.30;99.90
52615;DHT22;38508;53.158;6.614;2023-04-30T11:52:58;19.10;99.90
52615;DHT22;38508;53.158;6.614;2023-04-30T11:55:26;19.30;99.90
52615;DHT22;38508;53.158;6.614;2023-04-30T11:57:55;19.40;99.90
52615;DHT22;38508;53.158;6.614;2023-04-30T12:00:29;19.60;99.90
52615;DHT22;38508;53.158;6.614;2023-04-30T12:02:57;19.20;99.90
52615;DHT22;38508;53.158;6.614;2023-04-30T12:05:26;19.30;99.90
52615;DHT22;38508;53.158;6.614;2023-04-30T12:07:59;19.20;99.90
52615;DHT22;38508;53.158;6.614;2023-04-30T12:10:25;18.70;99.90
52615;DHT22;38508;53.158;6.614;2023-04-30T12:12:51;18.50;99.90
52615;DHT22;38508;53.158;6.614;2023-04-30T12:15:20;19.00;99.90
52615;DHT22;38508;53.158;6.614;2023-04-30T12:17:58;18.70;99.90
52615;DHT22;38508;53.158;6.614;2023-04-30T12:20:28;18.60;99.90
52615;DHT22;38508;53.158;6.614;2023-04-30T12:22:56;18.30;99.90
52615;DHT22;38508;53.158;6.614;2023-04-30T12:25:23;18.60;99.90
52615;DHT22;38508;53.158;6.614;2023-04-30T12:27:52;19.00;99.90
52615;DHT22;38508;53.158;6.614;2023-04-30T12:30:23;19.00;99.90
52615;DHT22;38508;53.158;6.614;2023-04-30T12:32:51;18.60;99.90
52615;DHT22;38508;53.158;6.614;2023-04-30T12:35:20;18.30;99.90
52615;DHT22;38508;53.158;6.614;2023-04-30T12:37:52;18.60;99.90
52615;DHT22;38508;53.158;6.614;2023-04-30T12:40:19;18.20;99.90
52615;DHT22;38508;53.158;6.614;2023-04-30T12:42:45;18.30;99.90
52615;DHT22;38508;53.158;6.614;2023-04-30T12:48:15;18.40;99.90
52615;DHT22;38508;53.158;6.614;2023-04-30T12:50:41;18.70;99.90
52615;DHT22;38508;53.158;6.614;2023-04-30T12:53:07;19.10;99.90
52615;DHT22;38508;53.158;6.614;2023-04-30T12:55:33;20.00;99.90
52615;DHT22;38508;53.158;6.614;2023-04-30T12:58:03;20.40;99.90
52615;DHT22;38508;53.158;6.614;2023-04-30T13:01:02;20.80;99.90
52615;DHT22;38508;53.158;6.614;2023-04-30T13:03:27;20.80;99.90
52615;DHT22;38508;53.158;6.614;2023-04-30T13:05:54;21.10;99.90
52615;DHT22;38508;53.158;6.614;2023-04-30T13:08:20;21.50;99.90
52615;DHT22;38508;53.158;6.614;2023-04-30T13:10:47;21.60;99.90
52615;DHT22;38508;53.158;6.614;2023-04-30T13:13:15;21.80;99.90
52615;DHT22;38508;53.158;6.614;2023-04-30T13:15:42;21.90;99.90
52615;DHT22;38508;53.158;6.614;2023-04-30T13:18:07;21.90;99.90
52615;DHT22;38508;53.158;6.614;2023-04-30T13:20:37;22.30;99.90
52615;DHT22;38508;53.158;6.614;2023-04-30T13:23:03;22.60;99.90
52615;DHT22;38508;53.158;6.614;2023-04-30T13:25:29;22.60;99.90
52615;DHT22;38508;53.158;6.614;2023-04-30T13:27:55;22.30;99.90
52615;DHT22;38508;53.158;6.614;2023-04-30T13:30:22;22.30;99.90
52615;DHT22;38508;53.158;6.614;2023-04-30T13:32:48;22.20;99.90
52615;DHT22;38508;53.158;6.614;2023-04-30T13:35:13;21.90;99.90
52615;DHT22;38508;53.158;6.614;2023-04-30T13:37:39;21.70;99.90
52615;DHT22;38508;53.158;6.614;2023-04-30T13:40:06;21.80;99.90
52615;DHT22;38508;53.158;6.614;2023-04-30T13:42:33;21.80;99.90
52615;DHT22;38508;53.158;6.614;2023-04-30T13:44:59;21.50;99.90
52615;DHT22;38508;53.158;6.614;2023-04-30T13:47:24;21.90;99.90
52615;DHT22;38508;53.158;6.614;2023-04-30T13:49:50;22.30;99.90
52615;DHT22;38508;53.158;6.614;2023-04-30T13:52:16;22.30;99.90
52615;DHT22;38508;53.158;6.614;2023-04-30T13:54:41;22.00;99.90
52615;DHT22;38508;53.158;6.614;2023-04-30T13:57:07;21.80;99.90
52615;DHT22;38508;53.158;6.614;2023-04-30T13:59:33;22.00;99.90
52615;DHT22;38508;53.158;6.614;2023-04-30T14:01:59;22.30;99.90
52615;DHT22;38508;53.158;6.614;2023-04-30T14:04:25;22.00;99.90
52615;DHT22;38508;53.158;6.614;2023-04-30T14:06:50;21.90;99.90
52615;DHT22;38508;53.158;6.614;2023-04-30T14:09:21;21.80;99.90
52615;DHT22;38508;53.158;6.614;2023-04-30T14:11:46;21.60;99.90
52615;DHT22;38508;53.158;6.614;2023-04-30T14:14:12;21.70;99.90
52615;DHT22;38508;53.158;6.614;2023-04-30T14:16:38;22.00;99.90
52615;DHT22;38508;53.158;6.614;2023-04-30T14:19:04;22.10;99.90
52615;DHT22;38508;53.158;6.614;2023-04-30T14:21:30;22.30;99.90
52615;DHT22;38508;53.158;6.614;2023-04-30T14:23:56;22.30;99.90
52615;DHT22;38508;53.158;6.614;2023-04-30T14:26:21;22.10;99.90
52615;DHT22;38508;53.158;6.614;2023-04-30T14:28:47;22.00;99.90
52615;DHT22;38508;53.158;6.614;2023-04-30T14:31:13;22.30;99.90
52615;DHT22;38508;53.158;6.614;2023-04-30T14:33:38;22.10;99.90
52615;DHT22;38508;53.158;6.614;2023-04-30T14:36:05;22.00;99.90
52615;DHT22;38508;53.158;6.614;2023-04-30T14:38:31;22.30;99.90
52615;DHT22;38508;53.158;6.614;2023-04-30T14:40:56;22.30;99.90
52615;DHT22;38508;53.158;6.614;2023-04-30T14:43:22;22.30;99.90
52615;DHT22;38508;53.158;6.614;2023-04-30T14:45:48;22.40;99.90
52615;DHT22;38508;53.158;6.614;2023-04-30T14:48:14;22.50;99.90
52615;DHT22;38508;53.158;6.614;2023-04-30T14:50:40;23.00;99.90
52615;DHT22;38508;53.158;6.614;2023-04-30T14:53:06;23.30;99.90
52615;DHT22;38508;53.158;6.614;2023-04-30T14:55:32;23.20;99.90
52615;DHT22;38508;53.158;6.614;2023-04-30T14:57:58;23.40;99.90
52615;DHT22;38508;53.158;6.614;2023-04-30T15:00:24;23.50;99.90
52615;DHT22;38508;53.158;6.614;2023-04-30T15:02:50;23.50;99.90
52615;DHT22;38508;53.158;6.614;2023-04-30T15:05:15;23.50;99.90
52615;DHT22;38508;53.158;6.614;2023-04-30T15:07:41;23.50;99.90
52615;DHT22;38508;53.158;6.614;2023-04-30T15:10:08;23.50;99.90
52615;DHT22;38508;53.158;6.614;2023-04-30T15:12:34;23.90;99.90
52615;DHT22;38508;53.158;6.614;2023-04-30T15:15:01;24.00;99.90
52615;DHT22;38508;53.158;6.614;2023-04-30T15:17:27;23.80;99.90
52615;DHT22;38508;53.158;6.614;2023-04-30T15:19:53;23.80;99.90
52615;DHT22;38508;53.158;6.614;2023-04-30T15:22:20;23.60;99.90
52615;DHT22;38508;53.158;6.614;2023-04-30T15:24:45;24.10;99.90
52615;DHT22;38508;53.158;6.614;2023-04-30T15:27:11;24.00;99.90
52615;DHT22;38508;53.158;6.614;2023-04-30T15:29:37;23.80;99.90
52615;DHT22;38508;53.158;6.614;2023-04-30T15:32:04;24.20;99.90
52615;DHT22;38508;53.158;6.614;2023-04-30T15:34:30;24.50;99.90
52615;DHT22;38508;53.158;6.614;2023-04-30T15:36:56;24.20;99.90
52615;DHT22;38508;53.158;6.614;2023-04-30T15:39:23;24.40;99.90
52615;DHT22;38508;53.158;6.614;2023-04-30T15:41:49;24.60;99.90
52615;DHT22;38508;53.158;6.614;2023-04-30T15:44:15;24.00;99.90
52615;DHT22;38508;53.158;6.614;2023-04-30T15:46:40;23.80;99.90
52615;DHT22;38508;53.158;6.614;2023-04-30T15:49:06;23.50;99.90
52615;DHT22;38508;53.158;6.614;2023-04-30T15:51:32;23.60;99.90
52615;DHT22;38508;53.158;6.614;2023-04-30T15:53:58;23.40;99.90
52615;DHT22;38508;53.158;6.614;2023-04-30T15:56:24;23.30;99.90
52615;DHT22;38508;53.158;6.614;2023-04-30T15:58:52;23.40;99.90
52615;DHT22;38508;53.158;6.614;2023-04-30T16:01:18;23.20;99.90